Time;durP1;ratioP1;P1;durP2;ratioP2;P2;SDS_P1;SDS_P2;PMS_P1;PMS_P2;Temp;Humidity;BMP_temperature;BMP_pressure;BME280_temperature;BME280_humidity;BME280_pressure;Samples;Min_cycle;Max_cycle;Signal;HPM_P1;HPM_P2
2023/02/15 00:01:52;;;;;;;26.00;15.10;;;3.80;99.90;;;;;;5044811;28;20647;-65
2023/02/15 00:04:20;;;;;;;27.10;15.80;;;3.70;99.90;;;;;;5045277;28;20904;-65
2023/02/15 00:06:46;;;;;;;24.70;12.80;;;3.70;99.90;;;;;;5046333;28;20434;-65
2023/02/15 00:09:12;;;;;;;30.67;15.33;;;3.60;99.90;;;;;;5042148;28;20824;-66
2023/02/15 00:11:43;;;;;;;23.87;15.83;;;3.60;99.90;;;;;;5046618;28;20486;-66
2023/02/15 00:14:22;;;;;;;28.30;16.73;;;3.60;99.90;;;;;;5048726;28;20253;-65
2023/02/15 00:16:50;;;;;;;27.57;15.00;;;3.50;99.90;;;;;;5046023;28;20417;-67
2023/02/15 00:19:18;;;;;;;23.03;14.97;;;3.40;99.90;;;;;;5048161;28;20413;-66
2023/02/15 00:21:45;;;;;;;27.80;16.17;;;3.40;99.90;;;;;;5044902;28;20434;-66
2023/02/15 00:24:12;;;;;;;25.70;16.07;;;3.40;99.90;;;;;;5018235;28;20896;-66
2023/02/15 00:26:39;;;;;;;29.87;16.03;;;3.40;99.90;;;;;;5047277;28;20755;-65
2023/02/15 00:29:06;;;;;;;26.23;15.60;;;3.30;99.90;;;;;;5047380;28;20919;-66
2023/02/15 00:31:32;;;;;;;34.93;15.40;;;3.30;99.90;;;;;;5039155;28;20472;-66
2023/02/15 00:34:13;;;;;;;28.67;16.77;;;3.20;99.90;;;;;;5039014;28;20416;-65
2023/02/15 00:36:39;;;;;;;33.00;17.97;;;3.20;99.90;;;;;;5039245;28;20410;-68
2023/02/15 00:39:05;;;;;;;29.83;17.57;;;3.20;99.90;;;;;;5055658;22;20492;-70
2023/02/15 00:41:32;;;;;;;32.67;17.03;;;3.20;99.90;;;;;;5040987;28;20833;-70
2023/02/15 00:43:57;;;;;;;27.83;15.97;;;3.10;99.90;;;;;;5042521;28;20812;-71
2023/02/15 00:46:23;;;;;;;28.07;15.70;;;3.10;99.90;;;;;;5042864;28;20436;-70
2023/02/15 00:48:49;;;;;;;39.10;17.87;;;3.00;99.90;;;;;;5045040;28;20247;-70
2023/02/15 00:51:15;;;;;;;31.43;18.60;;;3.00;99.90;;;;;;5046361;28;20329;-71
2023/02/15 00:53:40;;;;;;;31.57;15.17;;;3.00;99.90;;;;;;5050092;28;20167;-70
2023/02/15 00:56:06;;;;;;;33.90;17.50;;;2.90;99.90;;;;;;5045713;28;20508;-71
2023/02/15 00:58:31;;;;;;;44.20;19.63;;;2.90;99.90;;;;;;5045090;28;20191;-71
2023/02/15 01:01:05;;;;;;;26.60;15.47;;;2.90;99.90;;;;;;5049846;28;20633;-70
2023/02/15 01:03:31;;;;;;;31.80;17.17;;;2.90;99.90;;;;;;5039642;28;20174;-70
2023/02/15 01:05:56;;;;;;;34.60;18.40;;;2.80;99.90;;;;;;5039803;28;20418;-70
2023/02/15 01:08:22;;;;;;;26.70;15.60;;;2.80;99.90;;;;;;5045652;28;20237;-70
2023/02/15 01:10:49;;;;;;;29.90;17.03;;;2.80;99.90;;;;;;5038360;28;20266;-70
2023/02/15 01:13:16;;;;;;;29.30;17.33;;;2.80;99.90;;;;;;5045399;28;20171;-71
2023/02/15 01:15:42;;;;;;;34.23;18.20;;;2.80;99.90;;;;;;5043879;28;20438;-71
2023/02/15 01:18:07;;;;;;;29.70;15.80;;;2.80;99.90;;;;;;5040040;28;20480;-71
2023/02/15 01:20:36;;;;;;;36.43;20.77;;;2.80;99.90;;;;;;5041989;28;20521;-70
2023/02/15 01:23:02;;;;;;;37.00;18.77;;;2.80;99.90;;;;;;5041037;28;20541;-70
2023/02/15 01:25:28;;;;;;;31.57;17.33;;;2.80;99.90;;;;;;5045236;28;21142;-71
2023/02/15 01:27:54;;;;;;;28.77;16.47;;;2.70;99.90;;;;;;5040870;28;20437;-70
2023/02/15 01:30:19;;;;;;;31.73;18.30;;;2.70;99.90;;;;;;5026101;28;20624;-70
2023/02/15 01:32:45;;;;;;;30.27;17.20;;;2.70;99.90;;;;;;5047964;28;20171;-70
2023/02/15 01:35:11;;;;;;;41.83;18.87;;;2.70;99.90;;;;;;5045651;28;20175;-70
2023/02/15 01:37:37;;;;;;;36.23;19.17;;;2.70;99.90;;;;;;5043974;28;20211;-70
2023/02/15 01:40:07;;;;;;;32.70;18.70;;;2.70;99.90;;;;;;5040560;28;20415;-70
2023/02/15 01:42:33;;;;;;;35.20;18.03;;;2.60;99.90;;;;;;5042346;28;20430;-70
2023/02/15 01:45:03;;;;;;;30.43;16.53;;;2.70;99.90;;;;;;5040896;28;20399;-70
2023/02/15 01:47:40;;;;;;;32.30;18.10;;;2.60;99.90;;;;;;5041447;28;20562;-70
2023/02/15 01:50:24;;;;;;;30.07;17.77;;;2.70;99.90;;;;;;5040185;28;20406;-70
2023/02/15 01:52:57;;;;;;;32.93;18.40;;;2.60;99.90;;;;;;5044661;28;20472;-71
2023/02/15 01:55:27;;;;;;;32.37;16.97;;;2.50;99.90;;;;;;5041137;28;20405;-70
2023/02/15 01:57:53;;;;;;;34.53;18.97;;;2.50;99.90;;;;;;5038162;28;20780;-70
2023/02/15 02:00:20;;;;;;;35.57;19.33;;;2.50;99.90;;;;;;5040168;28;20398;-70
2023/02/15 02:03:12;;;;;;;33.43;17.83;;;2.50;99.90;;;;;;5042577;28;20903;-70
2023/02/15 02:05:39;;;;;;;35.30;18.40;;;2.50;99.90;;;;;;5049024;28;20862;-70
2023/02/15 02:08:06;;;;;;;36.20;19.63;;;2.40;99.90;;;;;;5041145;28;20426;-70
2023/02/15 02:10:32;;;;;;;34.73;17.87;;;2.40;99.90;;;;;;5041740;28;20457;-70
2023/02/15 02:13:02;;;;;;;38.10;19.30;;;2.40;99.90;;;;;;5045350;28;20418;-70
2023/02/15 02:15:56;;;;;;;41.60;21.00;;;2.40;99.90;;;;;;5033911;28;20222;-70
2023/02/15 02:18:34;;;;;;;34.50;16.53;;;2.40;99.90;;;;;;5029962;28;20438;-70
2023/02/15 02:21:11;;;;;;;36.17;17.70;;;2.40;99.90;;;;;;5032090;28;20406;-70
2023/02/15 02:24:03;;;;;;;33.87;18.83;;;2.40;99.90;;;;;;5043733;28;20505;-70
2023/02/15 02:27:00;;;;;;;43.93;19.97;;;2.40;99.90;;;;;;5044547;28;20414;-70
2023/02/15 02:29:45;;;;;;;39.30;20.77;;;2.40;99.90;;;;;;5035154;28;20430;-70
2023/02/15 02:32:41;;;;;;;42.67;20.93;;;2.40;99.90;;;;;;5032685;28;20870;-70
2023/02/15 02:35:22;;;;;;;33.23;18.03;;;2.40;99.90;;;;;;5035992;28;20440;-70
2023/02/15 02:38:10;;;;;;;38.50;21.20;;;2.30;99.90;;;;;;5034327;28;21579;-70
2023/02/15 02:41:03;;;;;;;37.07;16.70;;;2.30;99.90;;;;;;5037668;28;20776;-69
2023/02/15 02:43:40;;;;;;;42.47;21.67;;;2.30;99.90;;;;;;5043544;28;20475;-72
2023/02/15 02:46:14;;;;;;;40.70;21.60;;;2.20;99.90;;;;;;5040693;28;20490;-70
2023/02/15 02:48:40;;;;;;;39.20;22.17;;;2.20;99.90;;;;;;5041289;28;20437;-69
2023/02/15 02:51:06;;;;;;;45.37;20.00;;;2.20;99.90;;;;;;5043663;28;20457;-71
2023/02/15 02:53:33;;;;;;;36.47;17.60;;;2.20;99.90;;;;;;5032278;28;20532;-70
2023/02/15 02:56:02;;;;;;;37.73;20.93;;;2.20;99.90;;;;;;5037987;28;20206;-69
2023/02/15 02:58:50;;;;;;;40.20;19.27;;;2.20;99.90;;;;;;5040397;28;20426;-69
2023/02/15 03:01:23;;;;;;;48.33;22.83;;;2.10;99.90;;;;;;5036679;28;20418;-71
2023/02/15 03:04:03;;;;;;;48.67;22.70;;;2.10;99.90;;;;;;5023258;28;20421;-69
2023/02/15 03:06:35;;;;;;;44.80;21.90;;;2.10;99.90;;;;;;5037799;28;20781;-70
2023/02/15 03:09:08;;;;;;;54.03;25.03;;;2.10;99.90;;;;;;5039418;28;20830;-70
2023/02/15 03:11:34;;;;;;;42.83;22.80;;;2.10;99.90;;;;;;5038877;28;20457;-70
2023/02/15 03:13:59;;;;;;;45.07;20.67;;;2.10;99.90;;;;;;5038872;28;20402;-70
2023/02/15 03:16:26;;;;;;;45.80;23.47;;;2.00;99.90;;;;;;5043951;28;20433;-70
2023/02/15 03:19:05;;;;;;;50.53;22.77;;;2.10;99.90;;;;;;5043349;28;20183;-69
2023/02/15 03:21:37;;;;;;;57.50;23.70;;;2.00;99.90;;;;;;5041592;28;20406;-70
2023/02/15 03:24:11;;;;;;;58.83;25.30;;;2.00;99.90;;;;;;5043395;28;20405;-71
2023/02/15 03:26:42;;;;;;;60.53;23.80;;;2.00;99.90;;;;;;5035079;28;20464;-70
2023/02/15 03:29:11;;;;;;;54.70;24.30;;;2.00;99.90;;;;;;5037974;28;20945;-70
2023/02/15 03:31:41;;;;;;;60.73;24.47;;;1.90;99.90;;;;;;5034498;28;20781;-70
2023/02/15 03:34:10;;;;;;;62.50;25.97;;;1.90;99.90;;;;;;5042285;28;20414;-69
2023/02/15 03:37:11;;;;;;;56.73;23.80;;;1.90;99.90;;;;;;5041844;28;20405;-70
2023/02/15 03:39:53;;;;;;;49.03;23.83;;;1.90;99.90;;;;;;5042257;28;20516;-70
2023/02/15 03:42:31;;;;;;;46.93;22.63;;;1.80;99.90;;;;;;5039701;28;20430;-70
2023/02/15 03:45:03;;;;;;;48.67;24.10;;;1.80;99.90;;;;;;5032060;28;20402;-71
2023/02/15 03:47:36;;;;;;;46.40;24.57;;;1.80;99.90;;;;;;5039642;28;20433;-69
2023/02/15 03:51:33;;;;;;;46.07;22.27;;;1.70;99.90;;;;;;5043178;28;20496;-69
2023/02/15 03:52:58;;;;;;;54.97;25.77;;;1.70;99.90;;;;;;5032227;28;20402;-69
2023/02/15 03:55:24;;;;;;;50.00;27.13;;;1.70;99.90;;;;;;5042566;28;20414;-70
2023/02/15 04:03:27;;;;;;;54.03;25.30;;;1.60;99.90;;;;;;5044939;28;20401;-69
2023/02/15 04:05:53;;;;;;;53.97;23.20;;;1.60;99.90;;;;;;5036570;28;20440;-69
2023/02/15 04:08:18;;;;;;;59.43;23.83;;;1.50;99.90;;;;;;5027504;28;20476;-70
2023/02/15 04:10:53;;;;;;;57.10;27.57;;;1.50;99.90;;;;;;5034050;28;20196;-71
2023/02/15 04:13:23;;;;;;;59.97;24.90;;;1.50;99.90;;;;;;5038905;28;20171;-70
2023/02/15 04:16:04;;;;;;;46.53;22.90;;;1.50;99.90;;;;;;5043015;28;20481;-70
2023/02/15 04:26:54;;;;;;;47.00;23.67;;;1.30;99.90;;;;;;5028625;28;20409;-71
2023/02/15 04:29:20;;;;;;;49.33;24.70;;;1.30;99.90;;;;;;5040744;28;20433;-70
2023/02/15 04:31:47;;;;;;;48.87;24.83;;;1.30;99.90;;;;;;5014180;28;20207;-69
2023/02/15 04:34:13;;;;;;;54.20;24.40;;;1.20;99.90;;;;;;5040766;28;20445;-71
2023/02/15 04:36:39;;;;;;;51.70;24.60;;;1.20;99.90;;;;;;5040858;28;20884;-71
2023/02/15 04:39:06;;;;;;;59.60;26.80;;;1.10;99.90;;;;;;5042316;28;20813;-70
2023/02/15 04:41:32;;;;;;;50.17;24.90;;;1.10;99.90;;;;;;5034272;28;20517;-70
2023/02/15 04:43:59;;;;;;;54.00;24.13;;;1.00;99.90;;;;;;5039827;28;20759;-70
2023/02/15 04:46:25;;;;;;;55.43;26.77;;;1.00;99.90;;;;;;5040868;28;20496;-70
2023/02/15 04:48:50;;;;;;;46.27;24.07;;;1.00;99.90;;;;;;5041718;28;20463;-70
2023/02/15 04:51:16;;;;;;;44.90;21.00;;;1.00;99.90;;;;;;5039358;28;20450;-71
2023/02/15 04:53:42;;;;;;;47.20;25.47;;;0.90;99.90;;;;;;5037763;28;20298;-70
2023/02/15 04:56:07;;;;;;;46.37;25.83;;;0.90;99.90;;;;;;5042375;28;20277;-70
2023/02/15 04:58:33;;;;;;;48.13;25.70;;;0.90;99.90;;;;;;5044630;28;20692;-71
2023/02/15 05:00:59;;;;;;;49.63;22.93;;;0.80;99.90;;;;;;5041494;28;20171;-70
2023/02/15 05:03:25;;;;;;;39.27;20.33;;;0.80;99.90;;;;;;5038356;28;20168;-70
2023/02/15 05:05:51;;;;;;;46.70;20.47;;;0.80;99.90;;;;;;5034311;28;20421;-71
2023/02/15 05:08:17;;;;;;;46.00;21.93;;;0.70;99.90;;;;;;5044510;28;20191;-70
2023/02/15 05:10:42;;;;;;;43.83;20.13;;;0.70;99.90;;;;;;5044478;28;20445;-71
2023/02/15 05:13:08;;;;;;;56.50;24.00;;;0.70;99.90;;;;;;5036741;28;20171;-71
2023/02/15 05:15:33;;;;;;;47.20;22.70;;;0.60;99.90;;;;;;5045859;28;20201;-70
2023/02/15 05:17:59;;;;;;;49.97;24.97;;;0.60;99.90;;;;;;5035373;28;20385;-71
2023/02/15 05:20:25;;;;;;;48.47;22.70;;;0.60;99.90;;;;;;5048667;28;20254;-70
2023/02/15 05:22:54;;;;;;;35.93;22.80;;;0.60;99.90;;;;;;5042595;28;20168;-70
2023/02/15 05:28:19;;;;;;;46.40;21.10;;;0.50;99.90;;;;;;5038829;28;20460;-72
2023/02/15 05:30:47;;;;;;;42.40;19.47;;;0.40;99.90;;;;;;5042011;28;20540;-70
2023/02/15 05:33:12;;;;;;;41.90;21.77;;;0.40;99.90;;;;;;5041832;28;20414;-71
2023/02/15 05:35:38;;;;;;;48.30;24.30;;;0.40;99.90;;;;;;5041882;28;20417;-70
2023/02/15 05:38:04;;;;;;;43.37;20.97;;;0.40;99.90;;;;;;5041527;28;20226;-70
2023/02/15 05:40:29;;;;;;;45.17;19.70;;;0.40;99.90;;;;;;5042040;28;20167;-71
2023/02/15 05:42:56;;;;;;;50.10;23.00;;;0.40;99.90;;;;;;5049084;28;20175;-72
2023/02/15 05:45:22;;;;;;;53.10;25.27;;;0.40;99.90;;;;;;5033241;28;20594;-70
2023/02/15 05:47:48;;;;;;;54.70;21.70;;;0.40;99.90;;;;;;5041534;28;20434;-70
2023/02/15 05:50:13;;;;;;;44.83;20.87;;;0.40;99.90;;;;;;5041551;28;20262;-71
2023/02/15 05:52:39;;;;;;;49.20;21.10;;;0.40;99.90;;;;;;5043197;28;20178;-71
2023/02/15 05:55:05;;;;;;;42.40;19.17;;;0.40;99.90;;;;;;5042933;28;20171;-70
2023/02/15 05:57:31;;;;;;;40.17;20.47;;;0.40;99.90;;;;;;5034827;28;20678;-71
2023/02/15 05:59:57;;;;;;;52.10;22.77;;;0.40;99.90;;;;;;5041481;28;20418;-70
2023/02/15 06:02:22;;;;;;;45.43;22.50;;;0.40;99.90;;;;;;5035841;28;20484;-71
2023/02/15 06:04:48;;;;;;;44.97;20.47;;;0.40;99.90;;;;;;5044098;28;20183;-70
2023/02/15 06:07:13;;;;;;;49.20;21.53;;;0.40;99.90;;;;;;5044353;28;20186;-71
2023/02/15 06:09:39;;;;;;;54.60;25.37;;;0.40;99.90;;;;;;5035981;28;20179;-70
2023/02/15 06:12:05;;;;;;;52.53;23.80;;;0.40;99.90;;;;;;5046519;28;20195;-70
2023/02/15 06:14:31;;;;;;;51.77;25.13;;;0.40;99.90;;;;;;5039556;28;20206;-70
2023/02/15 06:16:56;;;;;;;51.27;21.80;;;0.40;99.90;;;;;;5040521;28;20195;-71
2023/02/15 06:19:22;;;;;;;54.40;24.27;;;0.40;99.90;;;;;;5033664;28;20203;-69
2023/02/15 06:21:48;;;;;;;48.93;20.30;;;0.40;99.90;;;;;;5043873;28;20696;-69
2023/02/15 06:24:14;;;;;;;52.80;22.10;;;0.40;99.90;;;;;;5038212;28;20535;-71
2023/02/15 06:26:39;;;;;;;47.37;22.43;;;0.40;99.90;;;;;;5040704;28;20423;-69
2023/02/15 06:29:05;;;;;;;57.13;24.17;;;0.40;99.90;;;;;;5038893;28;20223;-69
2023/02/15 06:31:31;;;;;;;53.20;22.27;;;0.40;99.90;;;;;;5039482;28;20229;-69
2023/02/15 06:34:00;;;;;;;61.23;24.70;;;0.40;99.90;;;;;;5044356;28;20175;-72
2023/02/15 06:36:28;;;;;;;54.30;24.93;;;0.40;99.90;;;;;;5036267;28;20226;-71
2023/02/15 06:38:54;;;;;;;48.90;24.30;;;0.40;99.90;;;;;;5032432;28;20801;-70
2023/02/15 06:41:20;;;;;;;62.40;24.73;;;0.40;99.90;;;;;;5069248;22;20489;-65
2023/02/15 06:43:45;;;;;;;47.23;22.43;;;0.40;99.90;;;;;;5030542;28;20472;-65
2023/02/15 06:46:11;;;;;;;57.93;24.37;;;0.50;99.90;;;;;;5013688;28;20175;-66
2023/02/15 06:48:36;;;;;;;60.17;26.10;;;0.50;99.90;;;;;;5044199;28;20345;-65
2023/02/15 06:51:02;;;;;;;53.80;21.87;;;0.60;99.90;;;;;;5042015;28;20198;-65
2023/02/15 06:53:28;;;;;;;59.47;25.10;;;0.60;99.90;;;;;;5039134;28;20292;-66
2023/02/15 06:56:06;;;;;;;47.83;23.07;;;0.60;99.90;;;;;;5046465;28;20210;-67
2023/02/15 06:58:35;;;;;;;47.90;22.37;;;1.10;99.90;;;;;;5037534;28;20174;-66
2023/02/15 07:01:00;;;;;;;59.27;26.07;;;1.10;99.90;;;;;;5041673;28;20529;-66
2023/02/15 07:03:26;;;;;;;50.27;22.30;;;1.00;99.90;;;;;;5050017;28;20420;-65
2023/02/15 07:05:56;;;;;;;43.37;23.20;;;1.10;99.90;;;;;;5038801;28;20175;-65
2023/02/15 07:08:22;;;;;;;51.20;20.90;;;1.00;99.90;;;;;;5038368;28;20645;-65
2023/02/15 07:10:49;;;;;;;53.30;26.07;;;1.30;99.90;;;;;;5047473;28;20500;-67
2023/02/15 07:13:15;;;;;;;54.30;23.07;;;1.10;99.90;;;;;;5030945;28;20951;-64
2023/02/15 07:15:40;;;;;;;68.17;27.60;;;1.10;99.90;;;;;;5048126;28;20414;-66
2023/02/15 07:18:06;;;;;;;65.93;24.63;;;1.40;99.90;;;;;;5042126;28;20178;-66
2023/02/15 07:20:35;;;;;;;73.23;28.40;;;1.20;99.90;;;;;;5046649;28;20273;-66
2023/02/15 07:23:01;;;;;;;67.97;24.10;;;1.40;99.90;;;;;;5034771;28;20183;-65
2023/02/15 07:25:26;;;;;;;66.53;21.70;;;1.50;99.90;;;;;;5033519;28;20406;-65
2023/02/15 07:28:00;;;;;;;58.63;23.90;;;1.30;99.90;;;;;;5038927;28;20453;-65
2023/02/15 07:30:26;;;;;;;46.47;24.80;;;1.40;99.90;;;;;;5043001;28;20198;-66
2023/02/15 07:35:54;;;;;;;62.13;25.00;;;1.50;99.90;;;;;;5036728;28;20502;-65
2023/02/15 07:38:20;;;;;;;53.03;27.47;;;1.30;99.90;;;;;;5034435;28;20816;-65
2023/02/15 07:40:46;;;;;;;69.20;30.23;;;1.20;99.90;;;;;;5040125;28;20888;-65
2023/02/15 07:43:12;;;;;;;61.53;23.63;;;1.10;99.90;;;;;;5041826;28;20414;-65
2023/02/15 07:45:37;;;;;;;59.17;26.60;;;1.30;99.90;;;;;;5047136;28;20195;-65
2023/02/15 07:48:04;;;;;;;57.73;24.50;;;1.40;99.90;;;;;;5047672;28;20171;-65
2023/02/15 07:50:30;;;;;;;69.60;28.57;;;1.40;99.90;;;;;;5045597;28;20848;-66
2023/02/15 07:52:57;;;;;;;48.90;22.37;;;1.40;99.90;;;;;;5040439;28;20436;-67
2023/02/15 07:55:23;;;;;;;47.40;22.80;;;1.40;99.90;;;;;;5040713;28;20402;-66
2023/02/15 07:57:50;;;;;;;64.03;21.00;;;1.50;99.90;;;;;;5048064;28;20417;-65
2023/02/15 08:00:21;;;;;;;55.23;26.90;;;1.40;99.90;;;;;;5039887;28;20210;-66
2023/02/15 08:03:12;;;;;;;54.30;22.77;;;1.50;99.90;;;;;;5040457;28;20410;-66
2023/02/15 08:05:37;;;;;;;55.87;26.23;;;1.80;99.90;;;;;;5038945;28;20418;-66
2023/02/15 08:08:03;;;;;;;60.47;24.90;;;1.90;99.90;;;;;;5041490;28;20405;-67
2023/02/15 08:13:13;;;;;;;55.47;24.67;;;1.90;99.90;;;;;;5035392;28;20449;-66
2023/02/15 08:15:39;;;;;;;60.13;26.27;;;1.80;99.90;;;;;;5039095;28;20450;-66
2023/02/15 08:18:04;;;;;;;44.60;26.13;;;1.90;99.90;;;;;;5044011;28;20163;-67
2023/02/15 08:20:31;;;;;;;59.10;25.03;;;2.00;99.90;;;;;;5042074;28;20653;-66
2023/02/15 08:22:56;;;;;;;63.80;23.00;;;2.00;99.90;;;;;;5045014;28;20261;-66
2023/02/15 08:25:22;;;;;;;59.23;26.47;;;2.10;99.90;;;;;;5044425;28;20983;-67
2023/02/15 08:27:50;;;;;;;70.13;27.93;;;2.30;99.90;;;;;;5044978;28;20183;-66
2023/02/15 08:30:15;;;;;;;54.07;25.47;;;2.30;99.90;;;;;;5046742;28;20687;-67
2023/02/15 08:32:41;;;;;;;71.33;28.93;;;2.50;99.90;;;;;;5044285;28;20859;-66
2023/02/15 08:35:07;;;;;;;44.67;22.40;;;2.30;99.90;;;;;;5044854;28;20186;-66
2023/02/15 08:37:32;;;;;;;62.73;24.60;;;2.40;99.90;;;;;;5042468;28;20275;-67
2023/02/15 08:39:58;;;;;;;64.80;27.70;;;2.50;99.90;;;;;;5040412;28;20207;-67
2023/02/15 08:42:23;;;;;;;48.60;22.47;;;2.70;99.90;;;;;;5041955;28;20183;-67
2023/02/15 08:44:51;;;;;;;60.10;24.40;;;2.60;99.90;;;;;;5044643;28;20210;-67
2023/02/15 08:47:16;;;;;;;58.27;22.53;;;2.60;99.90;;;;;;5044653;28;20210;-67
2023/02/15 08:49:42;;;;;;;45.37;23.03;;;2.60;99.90;;;;;;5045384;28;20433;-67
2023/02/15 08:52:08;;;;;;;48.20;23.97;;;2.70;99.90;;;;;;5021832;28;20699;-66
2023/02/15 08:54:33;;;;;;;55.20;25.67;;;2.80;99.90;;;;;;5049960;28;20186;-68
2023/02/15 08:56:59;;;;;;;52.47;22.60;;;2.90;99.90;;;;;;5052033;28;20223;-67
2023/02/15 08:59:26;;;;;;;45.73;21.33;;;3.10;99.90;;;;;;5047625;28;20167;-66
2023/02/15 09:01:53;;;;;;;44.23;22.03;;;3.20;99.90;;;;;;5033090;28;20825;-65
2023/02/15 09:04:19;;;;;;;46.30;22.87;;;3.30;99.90;;;;;;5032740;28;20535;-66
2023/02/15 09:06:47;;;;;;;49.73;22.90;;;3.40;99.90;;;;;;5036028;28;20508;-66
2023/02/15 09:09:13;;;;;;;58.00;23.93;;;3.30;99.90;;;;;;5038900;28;20619;-65
2023/02/15 09:11:41;;;;;;;42.30;19.47;;;3.60;99.90;;;;;;5042512;28;21049;-65
2023/02/15 09:14:15;;;;;;;35.47;21.40;;;3.90;99.90;;;;;;5038368;28;20203;-65
2023/02/15 09:16:46;;;;;;;41.70;19.80;;;3.80;99.90;;;;;;5042363;28;20413;-66
2023/02/15 09:19:11;;;;;;;40.47;19.93;;;4.30;99.90;;;;;;5052341;28;20405;-66
2023/02/15 09:21:38;;;;;;;36.70;18.20;;;4.60;99.90;;;;;;5041923;28;20794;-65
2023/02/15 09:24:07;;;;;;;34.67;18.37;;;4.20;99.90;;;;;;5044163;28;20510;-66
2023/02/15 09:26:35;;;;;;;30.53;17.70;;;4.50;99.90;;;;;;5049629;28;20414;-66
2023/02/15 09:29:03;;;;;;;40.50;20.10;;;4.50;99.90;;;;;;5043643;28;20782;-65
2023/02/15 09:31:36;;;;;;;28.20;17.40;;;4.70;99.90;;;;;;5047322;28;20887;-66
2023/02/15 09:34:02;;;;;;;34.10;18.50;;;4.90;99.90;;;;;;5043049;28;20420;-66
2023/02/15 09:36:31;;;;;;;38.37;22.60;;;4.70;99.90;;;;;;5040522;28;20414;-65
2023/02/15 09:38:58;;;;;;;30.00;18.20;;;5.20;99.90;;;;;;5045645;28;20195;-65
2023/02/15 09:41:29;;;;;;;28.90;16.63;;;4.70;99.90;;;;;;5040303;28;20908;-65
2023/02/15 09:44:09;;;;;;;32.83;18.77;;;4.90;99.90;;;;;;5044359;28;20888;-66
2023/02/15 09:46:56;;;;;;;26.33;18.43;;;5.40;99.90;;;;;;5034549;28;20415;-65
2023/02/15 09:49:46;;;;;;;31.13;16.03;;;5.20;99.90;;;;;;5013712;28;20415;-65
2023/02/15 09:52:38;;;;;;;28.63;16.07;;;4.80;99.90;;;;;;5032863;28;20990;-65
2023/02/15 09:55:31;;;;;;;28.07;15.57;;;4.70;99.90;;;;;;5033560;28;20415;-65
2023/02/15 09:58:05;;;;;;;24.60;15.00;;;5.20;99.90;;;;;;5039570;28;20398;-65
2023/02/15 10:00:37;;;;;;;31.83;16.53;;;5.00;99.90;;;;;;5039877;28;20430;-64
2023/02/15 10:03:05;;;;;;;22.77;14.10;;;5.10;99.90;;;;;;5031638;28;20905;-64
2023/02/15 10:05:31;;;;;;;24.50;14.93;;;5.00;99.90;;;;;;5043048;28;20953;-65
2023/02/15 10:08:11;;;;;;;29.27;15.73;;;5.30;99.90;;;;;;5035236;28;20441;-65
2023/02/15 10:11:38;;;;;;;21.83;14.70;;;4.80;99.90;;;;;;5041598;28;20611;-65
2023/02/15 10:14:06;;;;;;;27.57;15.07;;;4.90;99.90;;;;;;5042500;28;20508;-66
2023/02/15 10:16:56;;;;;;;23.90;15.63;;;5.20;99.90;;;;;;5042262;28;20421;-66
2023/02/15 10:19:50;;;;;;;27.00;15.07;;;4.90;99.90;;;;;;5035430;28;20453;-66
2023/02/15 10:22:40;;;;;;;26.87;15.03;;;4.50;99.90;;;;;;5007046;28;20410;-66
2023/02/15 10:25:12;;;;;;;23.57;15.60;;;4.90;99.90;;;;;;5031086;28;20935;-68
2023/02/15 10:27:48;;;;;;;22.73;14.50;;;4.70;99.90;;;;;;5045748;28;20406;-66
2023/02/15 10:30:15;;;;;;;25.87;15.57;;;4.50;99.90;;;;;;5024569;28;20444;-66
2023/02/15 10:33:02;;;;;;;31.60;16.63;;;4.30;99.90;;;;;;5039010;28;20876;-65
2023/02/15 10:36:10;;;;;;;29.03;14.90;;;4.40;99.90;;;;;;5040290;28;20774;-66
2023/02/15 10:39:02;;;;;;;32.97;17.70;;;4.20;99.90;;;;;;5043404;28;20543;-66
2023/02/15 10:41:53;;;;;;;23.80;14.90;;;4.60;99.90;;;;;;5035328;28;20543;-66
2023/02/15 10:44:22;;;;;;;27.73;16.33;;;4.60;99.90;;;;;;4997574;28;20759;-66
2023/02/15 10:47:09;;;;;;;21.83;15.17;;;4.80;99.90;;;;;;5041814;28;20487;-66
2023/02/15 10:50:00;;;;;;;27.60;14.93;;;4.70;99.90;;;;;;5044446;28;20421;-66
2023/02/15 10:52:54;;;;;;;25.53;13.93;;;4.50;99.90;;;;;;5022205;28;20469;-67
2023/02/15 10:55:57;;;;;;;26.90;16.53;;;4.80;99.90;;;;;;5038279;28;20505;-67
2023/02/15 10:58:41;;;;;;;24.50;15.20;;;5.00;99.90;;;;;;5008283;28;20908;-67
2023/02/15 11:01:19;;;;;;;29.80;14.20;;;5.00;99.90;;;;;;5032320;28;20425;-67
2023/02/15 11:04:04;;;;;;;32.47;19.10;;;4.90;99.90;;;;;;5037691;28;20502;-67
2023/02/15 11:06:31;;;;;;;25.20;16.10;;;5.20;99.90;;;;;;5033549;28;20779;-67
2023/02/15 11:09:02;;;;;;;31.90;16.03;;;5.30;99.90;;;;;;5034650;28;20497;-67
2023/02/15 11:11:35;;;;;;;28.87;16.20;;;5.30;99.90;;;;;;5023878;28;20544;-67
2023/02/15 11:14:05;;;;;;;34.50;18.53;;;5.20;99.90;;;;;;5035697;28;20489;-67
2023/02/15 11:16:39;;;;;;;29.80;15.33;;;5.20;99.90;;;;;;5041226;28;20513;-67
2023/02/15 11:19:13;;;;;;;30.70;17.77;;;5.40;99.90;;;;;;5038330;28;20410;-67
2023/02/15 11:21:46;;;;;;;26.97;17.03;;;5.50;99.90;;;;;;5013908;28;20465;-67
2023/02/15 11:24:20;;;;;;;29.83;16.47;;;5.60;99.90;;;;;;5039446;28;20414;-67
2023/02/15 11:27:02;;;;;;;24.73;14.80;;;5.80;99.90;;;;;;5045226;28;20413;-66
2023/02/15 11:29:38;;;;;;;23.20;15.17;;;6.00;99.90;;;;;;5028702;28;20418;-65
2023/02/15 11:32:14;;;;;;;27.90;14.67;;;6.00;99.90;;;;;;5031988;28;20548;-66
2023/02/15 11:35:16;;;;;;;28.10;15.50;;;5.90;99.90;;;;;;5037858;28;20768;-65
2023/02/15 11:38:07;;;;;;;23.70;15.10;;;6.20;99.90;;;;;;5020885;28;20913;-66
2023/02/15 11:40:47;;;;;;;29.37;15.97;;;6.10;99.90;;;;;;5031387;28;20499;-66
2023/02/15 11:43:47;;;;;;;27.83;16.77;;;6.00;99.90;;;;;;5037625;28;20758;-66
2023/02/15 11:46:14;;;;;;;29.00;14.60;;;6.10;99.90;;;;;;5035972;28;20410;-66
2023/02/15 11:48:42;;;;;;;26.13;17.40;;;6.30;99.90;;;;;;5034755;28;20812;-66
2023/02/15 11:51:20;;;;;;;25.87;14.50;;;6.30;99.90;;;;;;5048555;28;20544;-66
2023/02/15 11:53:46;;;;;;;31.20;19.13;;;6.50;99.90;;;;;;5024456;28;20467;-66
2023/02/15 11:56:17;;;;;;;30.03;18.03;;;6.60;99.90;;;;;;5037731;28;20561;-65
2023/02/15 11:58:48;;;;;;;37.03;16.27;;;6.30;99.90;;;;;;5037468;28;20854;-67
2023/02/15 12:01:23;;;;;;;21.60;15.67;;;6.70;99.90;;;;;;5035982;28;20436;-66
2023/02/15 12:04:05;;;;;;;27.13;14.20;;;6.70;99.90;;;;;;5033130;28;20401;-66
2023/02/15 12:06:35;;;;;;;25.70;14.97;;;6.80;99.90;;;;;;5040595;28;20441;-66
2023/02/15 12:09:16;;;;;;;26.07;14.70;;;6.60;99.90;;;;;;5034130;28;20748;-67
2023/02/15 12:11:41;;;;;;;28.70;14.87;;;6.70;99.90;;;;;;5032650;28;20457;-66
2023/02/15 12:14:09;;;;;;;24.83;14.60;;;6.80;99.90;;;;;;5034714;28;20920;-66
2023/02/15 12:16:47;;;;;;;24.43;15.27;;;7.00;99.90;;;;;;5041226;28;20171;-67
2023/02/15 12:19:22;;;;;;;29.80;15.87;;;7.00;99.90;;;;;;5031903;28;20756;-67
2023/02/15 12:21:52;;;;;;;24.27;15.80;;;7.00;99.90;;;;;;5043222;28;20646;-67
2023/02/15 12:24:20;;;;;;;26.10;15.83;;;7.10;99.90;;;;;;5037834;28;20449;-67
2023/02/15 12:27:06;;;;;;;22.77;12.87;;;7.20;99.90;;;;;;5045690;28;20915;-67
2023/02/15 12:29:53;;;;;;;21.20;14.13;;;7.00;99.90;;;;;;5035266;28;20850;-67
2023/02/15 12:32:25;;;;;;;25.90;14.53;;;7.20;99.90;;;;;;5047058;28;20457;-67
2023/02/15 12:34:54;;;;;;;27.97;15.90;;;7.30;99.90;;;;;;5035382;28;20406;-67
2023/02/15 12:37:25;;;;;;;25.83;14.67;;;7.50;99.90;;;;;;5040028;28;20492;-67
2023/02/15 12:39:56;;;;;;;28.87;15.47;;;7.60;99.90;;;;;;5037475;28;20461;-67
2023/02/15 12:42:24;;;;;;;28.37;16.77;;;7.70;99.90;;;;;;5025413;23;20482;-68
2023/02/15 12:44:54;;;;;;;28.50;15.30;;;7.70;99.90;;;;;;5030267;28;20398;-68
2023/02/15 12:47:20;;;;;;;25.40;16.03;;;7.80;99.90;;;;;;5030974;28;20409;-69
2023/02/15 12:50:04;;;;;;;26.77;16.77;;;7.70;99.90;;;;;;5032031;28;20406;-69
2023/02/15 12:52:29;;;;;;;25.17;15.77;;;7.90;99.90;;;;;;5028355;28;20465;-70
2023/02/15 12:55:09;;;;;;;21.97;14.30;;;7.90;99.90;;;;;;5029950;28;20418;-68
2023/02/15 12:57:34;;;;;;;23.77;14.60;;;8.10;99.90;;;;;;5030956;28;20525;-70
2023/02/15 13:00:05;;;;;;;22.77;14.93;;;8.10;99.90;;;;;;5031324;28;20429;-70
2023/02/15 13:02:42;;;;;;;23.30;15.43;;;8.10;99.90;;;;;;5031165;28;20279;-69
2023/02/15 13:05:33;;;;;;;27.60;14.37;;;8.20;99.90;;;;;;5027556;28;20435;-69
2023/02/15 13:08:10;;;;;;;26.07;14.53;;;8.20;99.90;;;;;;5028631;28;21104;-69
2023/02/15 13:10:51;;;;;;;22.20;15.40;;;8.40;99.90;;;;;;5032527;28;20441;-69
2023/02/15 13:13:21;;;;;;;23.30;13.93;;;8.60;99.90;;;;;;5034628;28;20572;-69
2023/02/15 13:15:50;;;;;;;24.53;15.67;;;8.70;99.90;;;;;;5029877;28;20407;-69
2023/02/15 13:18:28;;;;;;;21.70;15.73;;;8.60;99.90;;;;;;5027402;28;20422;-69
2023/02/15 13:20:54;;;;;;;22.70;14.20;;;8.80;99.90;;;;;;5027035;28;20403;-68